Aviation Digital Data Service (ADDS)

Output produced by METARs form (1939 UTC 23 October 2021)
found at http://www.aviationweather.gov/metar/data/
 
EDDK 231920Z 10003KT 070V140 CAVOK 07/04 Q1028 NOSIG
EDDK 231850Z 11004KT 9999 FEW045 08/04 Q1029 NOSIG
EDDK 231820Z 11003KT 080V160 9999 SCT045 08/05 Q1029 NOSIG
EDDK 231750Z VRB01KT 9999 BKN048 07/05 Q1029 NOSIG
EDDK 231720Z 08003KT 050V110 9999 BKN048 08/05 Q1028 NOSIG
EDDK 231650Z VRB02KT 9999 BKN048 08/05 Q1028 NOSIG
EDDK 231620Z 15003KT 9999 FEW016 BKN048 08/05 Q1028 NOSIG
EDDK 231550Z 12003KT 090V150 9999 FEW016 10/05 Q1028 NOSIG
TAF EDDK 231700Z 2318/2424 12005KT 9999 BKN040 
     BECMG 2408/2411 14011KT 
     BECMG 2418/2420 13006KT
       
EDGS 231650Z 23003KT CAVOK 05/02 Q1028
EDGS 231620Z 27002KT CAVOK 06/02 Q1028
EDGS 231550Z 26002KT CAVOK 06/03 Q1028
TAF EDGS 231700Z 2318/2403 VRB03KT CAVOK 
     BECMG 2322/2324 14005KT 
     PROB30 
     TEMPO 2400/2403 4000 BR
       
EDLW 231920Z 15006KT CAVOK 06/03 Q1028
EDLW 231850Z 15006KT CAVOK 05/03 Q1028
EDLW 231820Z 16006KT CAVOK 05/02 Q1028
EDLW 231750Z 16005KT CAVOK 05/02 Q1028
EDLW 231720Z 17005KT CAVOK 06/02 Q1028
EDLW 231650Z 18004KT CAVOK 07/03 Q1028
EDLW 231620Z 19004KT CAVOK 09/04 Q1028
EDLW 231550Z 23004KT CAVOK 10/03 Q1028
TAF EDLW 231700Z 2318/2418 16006KT CAVOK
       
EDDL 231920Z 15006KT CAVOK 08/05 Q1028 NOSIG
EDDL 231850Z 15007KT CAVOK 07/05 Q1028 NOSIG
EDDL 231820Z 17007KT CAVOK 07/05 Q1028 NOSIG
EDDL 231750Z 16007KT CAVOK 08/06 Q1028 NOSIG
EDDL 231720Z 16005KT CAVOK 08/06 Q1028 NOSIG
EDDL 231650Z 16006KT 9999 FEW030 09/06 Q1028 NOSIG
EDDL 231620Z 15007KT 9999 FEW025 09/06 Q1028 NOSIG
EDDL 231550Z 16007KT 9999 FEW025 11/06 Q1028 NOSIG
TAF EDDL 231700Z 2318/2424 15005KT 9999 FEW025 
     BECMG 2320/2323 15010KT
       
ETNN 231920Z AUTO VRB02KT 9999 // ////// 08/06 Q1028 ///
ETNN 231820Z AUTO 12003KT 9999 // ////// 08/06 Q1028 ///
ETNN 231720Z AUTO 11004KT 9999 // ////// 10/06 Q1028 ///
ETNN 231620Z AUTO 11004KT 9999 // ////// 11/07 Q1028 ///